Rodney, Canada
Current Conditions -  °F | °C
As of 3:00 AM on Saturday 22 Nov 2014 (Local Time) from CYCK Reporting Station
Broken Clouds Broken Clouds  
Wind Chill: 17°   Ceiling: 15000
Heat Index: 30°   Visibility: 9mi
Dew Point: 19°   Wind: 23mph
Humidity: 64%   Direction: 220°SW
Pressure: 30.29"   Gusts: NA
Location:  42.57°N, 81.68°W
Report Text: CYCK 220800Z AUTO 22020KT 9SM BKN150 BKN170 M01/M07 A3029 RMK SLP265
Loading
Personal Weather Stations






























Interactive Weather Map New forecast layout! Learn more

10-Day Weather Forecast

Advertisements
Track Severe Weather on mobile